Time;durP1;ratioP1;P1;durP2;ratioP2;P2;SDS_P1;SDS_P2;PMS_P1;PMS_P2;Temp;Humidity;BMP_temperature;BMP_pressure;BME280_temperature;BME280_humidity;BME280_pressure;Samples;Min_cycle;Max_cycle;Signal;HPM_P1;HPM_P2
2024/04/09 00:07:25;;;;;;;0.20;0.10;;;;;;;24.53;43.78;99775.53;5431673;26;20705;-65
2024/04/09 00:09:52;;;;;;;0.20;0.10;;;;;;;24.52;43.49;99784.91;5420791;26;20224;-65
2024/04/09 00:12:21;;;;;;;0.20;0.10;;;;;;;24.52;43.75;99784.91;5454113;26;20323;-65
2024/04/09 00:14:50;;;;;;;0.20;0.10;;;;;;;24.52;43.78;99789.59;5453998;26;20224;-65
2024/04/09 00:17:19;;;;;;;0.20;0.10;;;;;;;24.50;43.90;99795.38;5447846;26;20322;-65
2024/04/09 00:19:49;;;;;;;0.20;0.10;;;;;;;24.49;43.64;99774.44;5442491;26;20770;-65
2024/04/09 00:22:15;;;;;;;0.20;0.10;;;;;;;24.48;43.63;99762.59;5411117;26;20222;-65
2024/04/09 00:24:42;;;;;;;0.20;0.10;;;;;;;24.49;43.85;99774.44;5436075;26;20283;-65
2024/04/09 00:27:08;;;;;;;0.20;0.10;;;;;;;24.48;43.83;99767.25;5447050;26;20223;-65
2024/04/09 00:29:39;;;;;;;0.20;0.10;;;;;;;24.47;43.74;99735.28;5445226;26;20269;-65
2024/04/09 00:32:05;;;;;;;0.20;0.10;;;;;;;24.48;43.50;99714.88;5471975;26;20253;-65
2024/04/09 00:34:31;;;;;;;0.20;0.10;;;;;;;24.47;43.83;99677.38;5465449;26;20286;-65
2024/04/09 00:36:57;;;;;;;0.20;0.10;;;;;;;24.46;43.55;99675.72;5445050;26;20228;-65
2024/04/09 00:39:27;;;;;;;0.20;0.00;;;;;;;24.47;43.45;99680.13;5437763;26;20236;-65
2024/04/09 00:41:54;;;;;;;0.20;0.10;;;;;;;24.46;43.65;99695.00;5445578;26;20243;-65
2024/04/09 00:44:25;;;;;;;0.20;0.10;;;;;;;24.46;43.90;99720.66;5443392;26;20231;-65
2024/04/09 00:46:53;;;;;;;0.20;0.10;;;;;;;24.46;43.70;99726.19;5436864;26;20775;-65
2024/04/09 00:49:19;;;;;;;0.20;0.10;;;;;;;24.46;43.52;99773.03;5447685;26;20265;-65
2024/04/09 00:51:49;;;;;;;0.20;0.10;;;;;;;24.46;43.78;99827.31;5446735;26;20337;-65
2024/04/09 00:54:17;;;;;;;0.20;0.10;;;;;;;24.45;43.52;99847.75;5417377;26;20231;-65
2024/04/09 00:56:44;;;;;;;0.20;0.10;;;;;;;24.44;43.74;99844.16;5404849;26;20239;-65
2024/04/09 00:59:12;;;;;;;0.20;0.10;;;;;;;24.45;43.87;99832.03;5416179;26;20720;-65
2024/04/09 01:01:42;;;;;;;0.20;0.10;;;;;;;24.43;43.86;99836.97;5406628;26;20236;-65
2024/04/09 01:04:08;;;;;;;0.20;0.10;;;;;;;24.43;43.90;99834.22;5409287;26;20236;-65
2024/04/09 01:06:35;;;;;;;0.20;0.10;;;;;;;24.43;43.56;99833.41;5438321;26;20225;-65
2024/04/09 01:09:01;;;;;;;0.20;0.10;;;;;;;24.43;43.61;99841.69;5415186;26;20224;-65
2024/04/09 01:11:27;;;;;;;0.20;0.10;;;;;;;24.43;43.47;99855.47;5442662;26;20657;-65
2024/04/09 01:13:53;;;;;;;0.20;0.10;;;;;;;24.41;43.60;99850.22;5454176;26;20237;-65
2024/04/09 01:16:19;;;;;;;0.20;0.10;;;;;;;24.43;43.52;99852.72;5444196;26;20305;-65
2024/04/09 01:18:45;;;;;;;0.20;0.10;;;;;;;24.42;43.47;99846.38;5395376;26;20232;-65
2024/04/09 01:21:11;;;;;;;0.20;0.10;;;;;;;24.42;43.74;99840.03;5431846;26;20240;-65
2024/04/09 01:23:38;;;;;;;0.20;0.10;;;;;;;24.40;43.87;99839.50;5435039;26;20353;-65
2024/04/09 01:26:04;;;;;;;0.20;0.10;;;;;;;24.39;43.62;99818.53;5450596;26;20836;-65
2024/04/09 01:28:33;;;;;;;0.20;0.10;;;;;;;24.37;43.54;99812.47;5433783;26;20243;-65
2024/04/09 01:31:01;;;;;;;0.20;0.10;;;;;;;24.37;43.63;99809.69;5436402;26;20715;-65
2024/04/09 01:33:27;;;;;;;0.20;0.10;;;;;;;24.37;43.78;99815.22;5454243;26;20249;-65
2024/04/09 01:35:54;;;;;;;0.20;0.10;;;;;;;24.36;43.70;99830.13;5474438;26;20227;-65
2024/04/09 01:38:21;;;;;;;0.20;0.00;;;;;;;24.36;43.90;99832.88;5446787;26;20231;-65
2024/04/09 01:40:47;;;;;;;0.20;0.08;;;;;;;24.35;43.50;99837.56;5447784;26;20332;-65
2024/04/09 01:43:13;;;;;;;0.20;0.10;;;;;;;24.35;43.82;99861.53;5406402;26;20272;-65
2024/04/09 01:45:39;;;;;;;0.20;0.20;;;;;;;24.34;43.98;99868.16;5436058;26;20228;-65
2024/04/09 01:48:06;;;;;;;0.20;0.10;;;;;;;24.34;43.85;99882.75;5446466;26;20324;-65
2024/04/09 01:50:37;;;;;;;0.20;0.10;;;;;;;24.35;43.81;99878.06;5446742;26;20228;-65
2024/04/09 01:53:03;;;;;;;0.20;0.10;;;;;;;24.33;43.51;99872.84;5444964;26;20278;-65
2024/04/09 01:55:29;;;;;;;0.20;0.10;;;;;;;24.34;43.91;99859.88;5407749;26;20227;-65
2024/04/09 01:57:56;;;;;;;0.20;0.10;;;;;;;24.34;43.57;99857.13;5448597;26;21096;-65
2024/04/09 02:00:22;;;;;;;0.20;0.10;;;;;;;24.33;43.75;99863.72;5424439;26;20223;-65
2024/04/09 02:02:54;;;;;;;0.20;0.10;;;;;;;24.32;43.67;99875.88;5436437;26;20307;-65
2024/04/09 02:05:21;;;;;;;0.20;0.10;;;;;;;24.31;43.73;99876.97;5394088;26;20231;-65
2024/04/09 02:07:47;;;;;;;0.20;0.10;;;;;;;24.31;43.59;99882.50;5453577;26;20229;-65
2024/04/09 02:10:14;;;;;;;0.20;0.10;;;;;;;24.30;43.90;99875.31;5440115;26;20266;-65
2024/04/09 02:12:40;;;;;;;0.20;0.10;;;;;;;24.30;43.63;99869.78;5442547;26;20239;-65
2024/04/09 02:15:07;;;;;;;0.20;0.10;;;;;;;24.28;43.47;99873.66;5432701;26;20224;-65
2024/04/09 02:17:33;;;;;;;0.20;0.10;;;;;;;24.30;43.83;99867.03;5458852;26;20234;-65
2024/04/09 02:19:59;;;;;;;0.20;0.10;;;;;;;24.27;43.95;99849.94;5429135;26;20606;-65
2024/04/09 02:22:28;;;;;;;0.20;0.10;;;;;;;24.26;43.71;99851.06;5415321;26;20232;-63
2024/04/09 02:24:55;;;;;;;0.20;0.10;;;;;;;24.25;43.50;99832.88;5452438;26;20288;-65
2024/04/09 02:27:21;;;;;;;0.20;0.10;;;;;;;24.26;43.55;99830.97;5444317;26;20236;-65
2024/04/09 02:29:48;;;;;;;0.20;0.10;;;;;;;24.24;43.97;99839.50;5431110;26;20232;-65
2024/04/09 02:32:14;;;;;;;0.20;0.10;;;;;;;24.24;43.64;99831.22;5438181;26;21108;-65
2024/04/09 02:34:40;;;;;;;0.20;0.10;;;;;;;24.24;43.58;99827.66;5441629;26;20637;-65
2024/04/09 02:37:06;;;;;;;0.20;0.10;;;;;;;24.24;43.83;99831.22;5444379;26;20235;-65
2024/04/09 02:39:32;;;;;;;0.20;0.10;;;;;;;24.24;43.42;99845.00;5445463;26;20227;-65
2024/04/09 02:42:03;;;;;;;0.20;0.10;;;;;;;24.23;43.50;99856.28;5399791;26;20233;-65
2024/04/09 02:44:29;;;;;;;0.20;0.10;;;;;;;24.24;43.54;99858.78;5396611;26;20225;-65
2024/04/09 02:46:56;;;;;;;0.20;0.10;;;;;;;24.22;43.54;99855.47;5438455;26;20284;-65
2024/04/09 02:49:22;;;;;;;0.20;0.10;;;;;;;24.22;43.75;99880.28;5442442;26;20305;-65
2024/04/09 02:51:48;;;;;;;0.20;0.10;;;;;;;24.22;43.80;99882.22;5444172;26;20350;-65
2024/04/09 02:54:14;;;;;;;0.20;0.10;;;;;;;24.21;43.68;99851.03;5445907;26;20235;-65
2024/04/09 02:56:40;;;;;;;0.20;0.10;;;;;;;24.21;43.85;99861.25;5431629;26;20328;-65
2024/04/09 02:59:07;;;;;;;0.20;0.10;;;;;;;24.21;43.53;99877.78;5446622;26;20755;-65
2024/04/09 03:01:35;;;;;;;0.20;0.10;;;;;;;24.20;43.71;99882.47;5445007;26;20231;-65
2024/04/09 03:04:01;;;;;;;0.20;0.10;;;;;;;24.19;43.74;99883.59;5407680;26;20224;-65
2024/04/09 03:06:28;;;;;;;0.20;0.10;;;;;;;24.18;43.61;99881.91;5439849;26;20317;-65
2024/04/09 03:08:54;;;;;;;0.20;0.10;;;;;;;24.20;43.38;99892.69;5439292;26;20771;-65
2024/04/09 03:11:21;;;;;;;0.20;0.10;;;;;;;24.18;43.41;99905.91;5426744;26;20240;-65
2024/04/09 03:13:49;;;;;;;0.20;0.10;;;;;;;24.17;43.83;99883.03;5434277;26;21383;-65
2024/04/09 03:16:17;;;;;;;0.20;0.10;;;;;;;24.17;43.43;99882.19;5406254;26;20228;-65
2024/04/09 03:18:44;;;;;;;0.20;0.00;;;;;;;24.16;43.56;99884.13;5405728;26;20228;-65
2024/04/09 03:21:10;;;;;;;0.20;0.10;;;;;;;24.15;43.50;99899.00;5443597;26;20671;-65
2024/04/09 03:23:38;;;;;;;0.20;0.10;;;;;;;24.14;43.69;99911.13;5435700;26;20259;-65
2024/04/09 03:26:08;;;;;;;0.20;0.10;;;;;;;24.15;43.84;99922.97;5403331;26;20563;-65
2024/04/09 03:28:34;;;;;;;0.20;0.10;;;;;;;24.14;43.44;99927.66;5443623;26;20278;-65
2024/04/09 03:31:02;;;;;;;0.20;0.10;;;;;;;24.13;43.86;99926.00;5450692;26;20239;-65
2024/04/09 03:33:28;;;;;;;0.20;0.10;;;;;;;24.12;43.52;99929.84;5435057;26;20279;-65
2024/04/09 03:35:57;;;;;;;0.20;0.10;;;;;;;24.13;43.57;99922.44;5463639;26;20334;-65
2024/04/09 03:38:23;;;;;;;0.20;0.10;;;;;;;24.11;43.53;99947.50;5454040;26;20347;-65
2024/04/09 03:40:56;;;;;;;0.20;0.10;;;;;;;24.12;43.87;99951.88;5449497;26;20270;-64
2024/04/09 03:43:22;;;;;;;0.20;0.10;;;;;;;24.11;43.53;99947.50;5411401;26;20229;-65
2024/04/09 03:46:11;;;;;;;0.20;0.10;;;;;;;24.11;43.71;99949.44;5406937;26;20274;-64
2024/04/09 03:48:44;;;;;;;0.20;0.10;;;;;;;24.10;43.54;99945.81;5424832;26;20758;-65
2024/04/09 03:51:11;;;;;;;0.20;0.10;;;;;;;24.09;43.42;99946.94;5383640;26;20582;-64
2024/04/09 03:53:38;;;;;;;0.20;0.10;;;;;;;24.08;43.50;99950.81;5431958;26;20323;-65
2024/04/09 03:56:09;;;;;;;0.20;0.10;;;;;;;24.09;43.65;99952.44;5445052;26;20234;-65
2024/04/09 03:58:43;;;;;;;0.20;0.10;;;;;;;24.07;43.79;99952.72;5445542;26;20247;-65
2024/04/09 04:01:13;;;;;;;0.20;0.10;;;;;;;24.07;43.86;99954.66;5448897;26;20766;-65
2024/04/09 04:03:46;;;;;;;0.20;0.10;;;;;;;24.07;43.96;99963.72;5448579;26;20742;-65
2024/04/09 04:06:12;;;;;;;0.20;0.10;;;;;;;24.07;43.84;99973.94;5442497;26;20271;-65
2024/04/09 04:08:40;;;;;;;0.20;0.10;;;;;;;24.07;43.99;99976.69;5445828;26;20765;-65
2024/04/09 04:11:08;;;;;;;0.20;0.10;;;;;;;24.07;43.95;99994.03;5452150;26;20224;-65
2024/04/09 04:13:35;;;;;;;0.20;0.10;;;;;;;24.07;43.61;100001.47;5415138;26;20559;-65
2024/04/09 04:16:04;;;;;;;0.20;0.10;;;;;;;24.06;43.70;100010.84;5439077;26;20270;-65
2024/04/09 04:18:38;;;;;;;0.20;0.10;;;;;;;24.07;43.60;100012.50;5455698;26;20906;-65
2024/04/09 04:21:06;;;;;;;0.20;0.10;;;;;;;24.06;43.53;100019.94;5401335;26;20553;-65
2024/04/09 04:23:32;;;;;;;0.20;0.10;;;;;;;24.06;43.77;100030.97;5399607;26;20283;-65
2024/04/09 04:26:05;;;;;;;0.20;0.10;;;;;;;24.06;43.64;100030.16;5430980;26;20229;-65
2024/04/09 04:28:33;;;;;;;0.20;0.10;;;;;;;24.06;43.50;100027.38;5452222;26;20227;-65
2024/04/09 04:31:00;;;;;;;0.20;0.10;;;;;;;24.05;43.63;100036.75;5414723;26;20780;-65
2024/04/09 04:33:27;;;;;;;0.20;0.10;;;;;;;24.05;43.56;100033.97;5406115;26;20224;-65
2024/04/09 04:35:53;;;;;;;0.20;0.10;;;;;;;24.06;43.61;100030.16;5448298;26;20336;-65
2024/04/09 04:38:20;;;;;;;0.20;0.10;;;;;;;24.05;43.94;100034.81;5423174;26;20236;-65
2024/04/09 04:40:46;;;;;;;0.20;0.10;;;;;;;24.04;43.61;100035.09;5445307;26;20630;-65
2024/04/09 04:43:13;;;;;;;0.20;0.10;;;;;;;24.03;43.92;100017.72;5469152;26;20231;-65
2024/04/09 04:45:43;;;;;;;0.20;0.10;;;;;;;24.04;43.57;99996.53;5407403;26;20573;-65
2024/04/09 04:48:09;;;;;;;0.20;0.10;;;;;;;24.04;43.65;99968.97;5425491;26;20274;-65
2024/04/09 04:50:37;;;;;;;0.20;0.10;;;;;;;24.03;43.56;99975.56;5428915;26;20229;-65
2024/04/09 04:53:03;;;;;;;0.20;0.10;;;;;;;24.02;43.61;99980.25;5364693;26;20295;-65
2024/04/09 04:55:30;;;;;;;0.20;0.10;;;;;;;24.04;43.89;99993.78;5389764;26;20316;-65
2024/04/09 04:57:56;;;;;;;0.20;0.10;;;;;;;24.04;43.62;100002.03;5448482;26;20309;-65
2024/04/09 05:00:23;;;;;;;0.20;0.10;;;;;;;24.04;43.85;100015.81;5444292;26;20276;-65
2024/04/09 05:02:49;;;;;;;0.20;0.10;;;;;;;24.04;43.57;100011.13;5447370;26;20228;-65
2024/04/09 05:05:15;;;;;;;0.20;0.10;;;;;;;24.04;43.92;99988.25;5443634;26;20283;-65
2024/04/09 05:07:42;;;;;;;0.20;0.10;;;;;;;24.03;43.36;100001.19;5409624;26;20314;-65
2024/04/09 05:10:12;;;;;;;0.20;0.10;;;;;;;24.03;43.51;100003.94;5446901;26;20240;-65
2024/04/09 05:12:39;;;;;;;0.20;0.10;;;;;;;24.03;43.41;100019.66;5404146;26;20222;-65
2024/04/09 05:15:09;;;;;;;0.20;0.10;;;;;;;24.03;43.55;100025.16;5407867;26;20275;-65
2024/04/09 05:17:35;;;;;;;0.20;0.10;;;;;;;24.02;43.59;100024.34;5442384;26;20552;-65
2024/04/09 05:20:09;;;;;;;0.20;0.10;;;;;;;24.02;43.63;100051.88;5439353;26;20297;-65
2024/04/09 05:22:39;;;;;;;0.20;0.10;;;;;;;24.01;43.48;100050.25;5418525;26;20231;-65
2024/04/09 05:25:09;;;;;;;0.20;0.10;;;;;;;24.02;43.59;100067.59;5411657;26;21362;-65
2024/04/09 05:27:36;;;;;;;0.20;0.10;;;;;;;24.02;43.57;100068.41;5440268;26;20235;-65
2024/04/09 05:30:02;;;;;;;0.20;0.10;;;;;;;24.02;43.79;100067.59;5400197;26;20232;-65
2024/04/09 05:32:29;;;;;;;0.20;0.10;;;;;;;24.02;43.58;100070.34;5400955;26;20274;-65
2024/04/09 05:34:56;;;;;;;0.20;0.10;;;;;;;24.01;43.53;100075.03;5401003;26;20232;-65
2024/04/09 05:37:22;;;;;;;0.20;0.10;;;;;;;24.01;43.42;100083.31;5455671;26;20283;-65
2024/04/09 05:39:48;;;;;;;0.20;0.10;;;;;;;24.01;43.53;100096.22;5427585;26;20232;-65
2024/04/09 05:42:15;;;;;;;0.20;0.10;;;;;;;24.01;43.57;100115.50;5430203;26;20242;-65
2024/04/09 05:44:42;;;;;;;0.20;0.10;;;;;;;24.00;43.78;100117.44;5457699;26;20231;-65
2024/04/09 05:47:08;;;;;;;0.20;0.10;;;;;;;23.99;43.58;100124.06;5401480;26;20766;-65
2024/04/09 05:49:35;;;;;;;0.20;0.10;;;;;;;23.99;43.60;100121.31;5448604;26;20279;-65
2024/04/09 05:52:01;;;;;;;0.20;0.10;;;;;;;23.99;43.53;100123.22;5401037;26;20275;-65
2024/04/09 05:54:28;;;;;;;0.20;0.10;;;;;;;23.99;43.46;100123.22;5460134;26;21216;-65
2024/04/09 05:56:55;;;;;;;0.20;0.10;;;;;;;23.99;43.85;100121.31;5401133;26;20762;-65
2024/04/09 05:59:22;;;;;;;0.20;0.10;;;;;;;23.99;43.74;100126.81;5444056;26;20228;-65
2024/04/09 06:01:48;;;;;;;0.20;0.10;;;;;;;23.98;44.14;100129.84;5440316;26;20997;-65
2024/04/09 06:04:16;;;;;;;0.20;0.10;;;;;;;23.98;44.27;100147.19;5431212;26;20276;-65
2024/04/09 06:06:43;;;;;;;0.20;0.10;;;;;;;23.98;44.35;100154.63;5429412;26;20223;-65
2024/04/09 06:09:09;;;;;;;0.20;0.10;;;;;;;23.98;44.76;100143.59;5402351;26;20232;-65
2024/04/09 06:11:35;;;;;;;0.20;0.10;;;;;;;24.02;44.57;100139.22;5438734;26;20780;-65
2024/04/09 06:14:01;;;;;;;0.20;0.10;;;;;;;24.03;44.90;100127.91;5444171;26;20283;-65
2024/04/09 06:16:27;;;;;;;0.20;0.10;;;;;;;24.06;44.44;100134.84;5413708;26;20232;-65
2024/04/09 06:18:54;;;;;;;0.20;0.10;;;;;;;24.07;44.54;100136.50;5446557;26;20236;-65
2024/04/09 06:21:20;;;;;;;0.20;0.10;;;;;;;24.08;44.23;100127.13;5412176;26;20239;-65
2024/04/09 06:23:46;;;;;;;0.20;0.10;;;;;;;24.09;44.29;100128.78;5444508;26;20273;-65
2024/04/09 06:26:14;;;;;;;0.20;0.10;;;;;;;24.10;43.99;100130.44;5448564;26;20291;-65
2024/04/09 06:28:40;;;;;;;0.20;0.10;;;;;;;24.11;44.32;100123.03;5413135;26;20309;-65
2024/04/09 06:31:07;;;;;;;0.20;0.10;;;;;;;24.11;44.05;100137.63;5440744;26;20826;-65
2024/04/09 06:33:33;;;;;;;0.20;0.10;;;;;;;24.12;44.37;100143.94;5411115;26;20240;-65
2024/04/09 06:35:59;;;;;;;0.20;0.10;;;;;;;24.10;44.15;100140.63;5442553;26;20263;-65
2024/04/09 06:38:25;;;;;;;0.20;0.10;;;;;;;24.08;43.96;100143.66;5401752;26;20299;-65
2024/04/09 06:40:54;;;;;;;0.20;0.10;;;;;;;24.10;43.78;100148.91;5424144;26;21241;-65
2024/04/09 06:43:20;;;;;;;0.20;0.10;;;;;;;24.09;44.22;100167.34;5447779;26;20307;-65
2024/04/09 06:45:46;;;;;;;0.20;0.10;;;;;;;24.09;43.75;100166.53;5459657;26;20761;-65
2024/04/09 06:48:12;;;;;;;0.20;0.10;;;;;;;-146.84;100.00;66378.44;5443272;26;20231;-65
2024/04/09 06:50:39;;;;;;;0.20;0.10;;;;;;;24.08;43.98;100154.69;5452736;26;20266;-65
2024/04/09 06:53:05;;;;;;;0.20;0.10;;;;;;;24.08;43.74;100160.22;5454266;26;20236;-65
2024/04/09 06:55:31;;;;;;;0.20;0.10;;;;;;;24.06;44.16;100165.16;5470541;26;20264;-65
2024/04/09 06:57:57;;;;;;;0.20;0.10;;;;;;;24.05;43.70;100150.53;5473845;26;20230;-65
2024/04/09 07:00:23;;;;;;;0.20;0.10;;;;;;;24.06;43.75;100143.09;5419979;26;20833;-65
2024/04/09 07:02:49;;;;;;;0.20;0.10;;;;;;;24.05;44.03;100122.97;5407201;26;20235;-65
2024/04/09 07:05:15;;;;;;;0.20;0.10;;;;;;;24.05;43.70;100149.69;5437810;26;20274;-65
2024/04/09 07:07:42;;;;;;;0.20;0.10;;;;;;;24.04;43.97;100148.06;5405871;26;20251;-65
2024/04/09 07:10:08;;;;;;;0.20;0.10;;;;;;;24.04;44.11;100156.31;5435181;26;20794;-65
2024/04/09 07:12:34;;;;;;;0.20;0.10;;;;;;;24.04;43.84;100172.84;5441034;26;20335;-66
2024/04/09 07:15:00;;;;;;;0.20;0.10;;;;;;;24.03;43.56;100173.94;5431642;26;20228;-65
2024/04/09 07:17:27;;;;;;;0.20;0.10;;;;;;;24.04;43.95;100178.34;5411761;26;20262;-65
2024/04/09 07:19:55;;;;;;;0.20;0.10;;;;;;;24.03;43.67;100173.94;5435041;26;20362;-65
2024/04/09 07:22:23;;;;;;;0.20;0.10;;;;;;;24.02;44.00;100189.63;5439980;26;20232;-65
2024/04/09 07:24:49;;;;;;;0.20;0.10;;;;;;;24.02;43.85;100183.31;5409600;26;20229;-65
2024/04/09 07:27:15;;;;;;;0.20;0.10;;;;;;;24.02;44.08;100199.84;5410512;26;20230;-65
2024/04/09 07:29:41;;;;;;;0.20;0.10;;;;;;;24.01;43.78;100196.25;5440469;26;20236;-65
2024/04/09 07:32:07;;;;;;;0.20;0.10;;;;;;;24.00;44.00;100202.84;5407621;26;20236;-65
2024/04/09 07:34:36;;;;;;;0.20;0.10;;;;;;;24.00;44.03;100219.38;5446614;26;20778;-65
2024/04/09 07:37:03;;;;;;;0.20;0.10;;;;;;;24.00;43.66;100210.28;5442301;26;20233;-65
2024/04/09 07:39:29;;;;;;;0.20;0.10;;;;;;;24.01;43.83;100209.19;5420720;26;20338;-65
2024/04/09 07:41:55;;;;;;;0.20;0.10;;;;;;;-146.84;100.00;66378.44;5462510;26;20802;-65
2024/04/09 07:44:21;;;;;;;0.20;0.10;;;;;;;24.00;43.74;100210.28;5455781;26;20241;-65
2024/04/09 07:46:50;;;;;;;0.20;0.10;;;;;;;24.01;43.86;100203.66;5427868;26;20724;-65
2024/04/09 07:49:16;;;;;;;0.20;0.10;;;;;;;24.02;43.69;100210.84;5451207;26;21095;-65
2024/04/09 07:51:43;;;;;;;0.20;0.10;;;;;;;24.03;43.42;100223.53;5453001;26;20235;-65
2024/04/09 07:54:10;;;;;;;0.20;0.10;;;;;;;24.03;43.88;100237.28;5445058;26;20709;-65
2024/04/09 07:56:36;;;;;;;0.20;0.10;;;;;;;24.04;43.75;100252.75;5460541;26;21128;-65
2024/04/09 07:59:02;;;;;;;0.20;0.10;;;;;;;24.03;43.79;100256.59;5447469;26;20229;-65
2024/04/09 08:01:29;;;;;;;0.20;0.10;;;;;;;24.03;43.56;100259.34;5444101;26;20228;-65
2024/04/09 08:03:55;;;;;;;0.20;0.10;;;;;;;24.04;43.36;100277.53;5439263;26;20244;-65
2024/04/09 08:06:21;;;;;;;0.20;0.10;;;;;;;24.03;43.13;100282.19;5408825;26;20652;-65
2024/04/09 08:08:48;;;;;;;0.20;0.10;;;;;;;24.03;43.58;100278.63;5429909;26;20233;-65
2024/04/09 08:11:14;;;;;;;0.20;0.10;;;;;;;24.02;43.56;100291.56;5441284;26;20224;-65
2024/04/09 08:13:41;;;;;;;0.20;0.10;;;;;;;24.02;43.57;100296.25;5442977;26;20790;-65
2024/04/09 08:16:08;;;;;;;0.20;0.17;;;;;;;24.01;43.44;100303.72;5443388;26;20227;-65
2024/04/09 08:18:34;;;;;;;0.20;0.10;;;;;;;24.02;43.03;100323.81;5406686;26;20341;-65
2024/04/09 08:21:00;;;;;;;0.20;0.10;;;;;;;24.02;43.23;100332.09;5442998;26;20223;-65
2024/04/09 08:23:27;;;;;;;0.20;0.10;;;;;;;24.02;43.42;100340.34;5409689;26;20279;-65
2024/04/09 08:25:53;;;;;;;0.20;0.10;;;;;;;24.02;43.38;100324.63;5406019;26;20550;-65
2024/04/09 08:28:19;;;;;;;0.20;0.10;;;;;;;24.03;43.23;100339.25;5438069;26;20274;-65
2024/04/09 08:30:46;;;;;;;0.20;0.10;;;;;;;24.06;43.33;100330.47;5444491;26;20394;-65
2024/04/09 08:33:14;;;;;;;0.20;0.10;;;;;;;24.08;43.08;100322.78;5368612;26;20236;-65
2024/04/09 08:35:48;;;;;;;0.20;0.10;;;;;;;24.14;43.16;100329.97;5441110;26;20224;-65
2024/04/09 08:38:14;;;;;;;0.20;0.10;;;;;;;24.20;43.05;100328.91;5416365;26;20243;-65
2024/04/09 08:40:41;;;;;;;0.20;0.10;;;;;;;24.27;42.91;100325.94;5460806;26;20236;-65
2024/04/09 08:43:07;;;;;;;0.20;0.10;;;;;;;24.35;43.19;100324.59;5415067;26;20244;-65
2024/04/09 08:45:33;;;;;;;0.20;0.10;;;;;;;24.42;42.61;100303.16;5392606;26;20558;-65
2024/04/09 08:48:04;;;;;;;0.20;0.10;;;;;;;24.49;42.75;100317.56;5458865;26;20227;-65
2024/04/09 08:50:31;;;;;;;0.20;0.10;;;;;;;24.56;42.99;100309.88;5443164;26;20228;-65
2024/04/09 08:53:00;;;;;;;0.20;0.10;;;;;;;24.63;42.88;100332.53;5448102;26;20246;-65
2024/04/09 08:55:27;;;;;;;0.20;0.10;;;;;;;24.69;43.07;100336.19;5452859;26;20235;-66
2024/04/09 08:57:53;;;;;;;0.20;0.10;;;;;;;24.75;42.82;100345.28;5446886;26;20300;-65
2024/04/09 09:00:20;;;;;;;0.20;0.10;;;;;;;24.80;42.81;100348.09;5445453;26;20277;-65
2024/04/09 09:02:46;;;;;;;0.20;0.10;;;;;;;24.86;42.59;100347.00;5455529;26;20267;-65
2024/04/09 09:05:19;;;;;;;0.20;0.10;;;;;;;24.90;42.78;100348.97;5468958;26;21146;-67
2024/04/09 09:07:46;;;;;;;0.20;0.10;;;;;;;24.95;41.69;100334.34;5446991;26;20287;-66
2024/04/09 09:10:13;;;;;;;0.20;0.10;;;;;;;24.98;41.51;100335.78;5421325;26;20711;-68
2024/04/09 09:12:39;;;;;;;0.20;0.10;;;;;;;24.99;41.60;100332.72;5442831;26;20266;-66
2024/04/09 09:15:06;;;;;;;0.20;0.10;;;;;;;25.00;41.60;100342.69;5434850;26;20291;-69
2024/04/09 09:17:34;;;;;;;0.20;0.10;;;;;;;25.02;41.23;100356.19;5434294;26;20288;-69
2024/04/09 09:20:08;;;;;;;0.20;0.10;;;;;;;25.04;41.47;100354.81;5445372;26;20239;-70
2024/04/09 09:22:42;;;;;;;0.20;0.10;;;;;;;25.05;41.20;100366.72;5396750;26;20330;-71
2024/04/09 09:25:16;;;;;;;0.20;0.10;;;;;;;25.04;41.07;100371.38;5413055;26;20228;-71
2024/04/09 09:27:46;;;;;;;0.20;0.10;;;;;;;25.06;40.62;100382.97;5450219;26;20334;-70
2024/04/09 09:30:13;;;;;;;0.20;0.10;;;;;;;25.11;41.10;100387.69;5436246;26;20270;-70
2024/04/09 09:32:47;;;;;;;0.20;0.10;;;;;;;25.14;40.69;100403.72;5417573;26;20237;-69
2024/04/09 09:35:17;;;;;;;0.20;0.10;;;;;;;25.18;40.98;100387.44;5392166;26;20244;-70
2024/04/09 09:37:45;;;;;;;0.20;0.10;;;;;;;25.18;40.62;100385.53;5412745;26;20224;-70
2024/04/09 09:40:12;;;;;;;0.20;0.10;;;;;;;25.21;40.64;100400.75;5426648;26;20227;-69
2024/04/09 09:42:38;;;;;;;0.20;0.10;;;;;;;25.22;40.48;100388.59;5408312;26;20267;-70
2024/04/09 09:45:08;;;;;;;0.20;0.10;;;;;;;25.22;40.35;100380.31;5424487;26;20231;-71
2024/04/09 09:47:36;;;;;;;0.20;0.10;;;;;;;25.23;41.40;100396.63;5454762;26;20715;-70
2024/04/09 09:50:08;;;;;;;0.20;0.10;;;;;;;25.23;40.79;100395.81;5428522;26;20227;-71
2024/04/09 09:52:34;;;;;;;0.20;0.10;;;;;;;25.25;40.40;100415.69;5418923;26;20228;-71
2024/04/09 09:55:01;;;;;;;0.20;0.10;;;;;;;25.24;40.90;100412.06;5454881;26;20234;-69
2024/04/09 09:57:30;;;;;;;0.20;0.10;;;;;;;25.26;40.53;100422.88;5409152;26;20239;-69
2024/04/09 09:59:59;;;;;;;0.20;0.10;;;;;;;25.24;40.52;100427.81;5417193;26;20271;-71
2024/04/09 10:02:28;;;;;;;0.20;0.10;;;;;;;25.25;40.73;100446.06;5428535;26;20282;-69
2024/04/09 10:04:59;;;;;;;0.20;0.10;;;;;;;25.25;40.39;100443.31;5433609;26;20232;-69
2024/04/09 10:07:27;;;;;;;0.20;0.10;;;;;;;25.23;39.90;100453.78;5419387;26;20271;-69
2024/04/09 10:09:54;;;;;;;0.20;0.10;;;;;;;25.21;40.26;100464.25;5410212;26;20300;-69
2024/04/09 10:12:23;;;;;;;0.20;0.10;;;;;;;25.21;39.75;100459.56;5424019;26;22983;-69
2024/04/09 10:15:09;;;;;;;0.20;0.10;;;;;;;25.20;39.82;100462.56;5382633;26;20287;-66
2024/04/09 10:17:55;;;;;;;0.20;0.10;;;;;;;25.18;39.56;100453.69;5410820;26;20270;-66
2024/04/09 10:20:30;;;;;;;0.20;0.10;;;;;;;25.14;39.67;100447.06;5406299;26;20235;-66
2024/04/09 10:23:01;;;;;;;0.20;0.10;;;;;;;25.10;39.96;100447.59;5383470;26;20276;-66
2024/04/09 10:25:35;;;;;;;0.20;0.10;;;;;;;25.09;39.80;100456.97;5407863;26;20228;-66
2024/04/09 10:28:18;;;;;;;0.20;0.10;;;;;;;25.06;40.03;100446.47;5420173;26;20365;-66
2024/04/09 10:30:45;;;;;;;0.20;0.10;;;;;;;25.05;40.22;100433.78;5411534;26;20235;-66
2024/04/09 10:33:12;;;;;;;0.20;0.10;;;;;;;25.06;40.29;100429.91;5413060;26;20286;-68
2024/04/09 10:35:45;;;;;;;0.20;0.10;;;;;;;25.08;40.67;100444.25;5428029;26;20232;-68
2024/04/09 10:38:12;;;;;;;0.20;0.10;;;;;;;25.10;40.29;100435.72;5435355;26;20228;-69
2024/04/09 10:40:38;;;;;;;0.20;0.10;;;;;;;25.13;40.05;100440.69;5444163;26;20724;-69
2024/04/09 10:43:08;;;;;;;0.20;0.10;;;;;;;25.16;39.78;100428.31;5452573;26;20290;-71
2024/04/09 10:45:35;;;;;;;0.20;0.10;;;;;;;25.18;40.31;100438.00;5447032;26;20278;-71
2024/04/09 10:48:01;;;;;;;0.20;0.10;;;;;;;25.19;40.02;100447.13;5458423;26;20768;-69
2024/04/09 10:50:28;;;;;;;0.20;0.10;;;;;;;25.19;39.83;100463.69;5442937;26;20223;-67
2024/04/09 10:52:54;;;;;;;0.20;0.10;;;;;;;25.22;39.73;100479.69;5445595;26;20239;-67
2024/04/09 10:55:21;;;;;;;0.20;0.10;;;;;;;25.23;40.02;100486.91;5449340;26;20223;-67
2024/04/09 10:57:53;;;;;;;0.20;0.10;;;;;;;25.24;39.64;100477.50;5443007;26;20235;-67
2024/04/09 11:00:21;;;;;;;0.20;0.10;;;;;;;25.26;39.69;100512.03;5445022;26;20235;-68
2024/04/09 11:02:50;;;;;;;0.20;0.10;;;;;;;25.27;39.72;100510.13;5454017;26;20267;-65
2024/04/09 11:05:17;;;;;;;0.20;0.10;;;;;;;25.26;39.99;100513.97;5387891;26;20666;-65
2024/04/09 11:07:45;;;;;;;0.20;0.10;;;;;;;25.26;40.06;100513.97;5418077;26;20291;-65
2024/04/09 11:10:15;;;;;;;0.20;0.10;;;;;;;25.24;39.66;100507.88;5422706;26;20582;-65
2024/04/09 11:12:48;;;;;;;0.20;0.10;;;;;;;25.23;40.19;100511.75;5417815;26;20224;-65
2024/04/09 11:15:15;;;;;;;0.20;0.10;;;;;;;25.20;39.78;100517.78;5406486;26;20265;-65
2024/04/09 11:17:42;;;;;;;0.20;0.10;;;;;;;25.21;39.92;100530.50;5432960;26;20228;-65
2024/04/09 11:20:10;;;;;;;0.20;0.10;;;;;;;25.19;40.15;100541.81;5398399;26;20801;-65
2024/04/09 11:22:42;;;;;;;0.20;0.10;;;;;;;25.19;39.91;100543.75;5413228;26;20275;-65
2024/04/09 11:25:17;;;;;;;0.20;0.10;;;;;;;25.17;39.98;100540.38;5438516;26;20232;-65
2024/04/09 11:27:49;;;;;;;0.20;0.10;;;;;;;25.15;40.37;100534.28;5447705;26;20273;-65
2024/04/09 11:30:33;;;;;;;0.20;0.10;;;;;;;25.14;40.00;100540.91;5403786;26;20270;-65
2024/04/09 11:33:02;;;;;;;0.20;0.10;;;;;;;25.13;40.19;100544.75;5449494;26;20556;-65
2024/04/09 11:35:29;;;;;;;0.20;0.10;;;;;;;25.12;40.38;100545.88;5420512;26;20344;-65
2024/04/09 11:37:58;;;;;;;0.20;0.10;;;;;;;25.10;40.30;100546.94;5455805;26;20232;-65